Time;durP1;ratioP1;P1;durP2;ratioP2;P2;SDS_P1;SDS_P2;PMS_P1;PMS_P2;Temp;Humidity;BMP_temperature;BMP_pressure;BME280_temperature;BME280_humidity;BME280_pressure;Samples;Min_cycle;Max_cycle;Signal;HPM_P1;HPM_P2
2023/03/17 00:00:26;;;;;;;2.65;2.25;;;;;;;7.49;nan;100608.19;4992760;28;20034;-57
2023/03/17 00:02:52;;;;;;;5.57;2.88;;;;;;;7.75;nan;100655.59;5007686;28;20443;-57
2023/03/17 00:05:23;;;;;;;4.15;2.40;;;;;;;7.86;nan;100652.69;4992729;28;20187;-57
2023/03/17 00:07:50;;;;;;;3.30;2.05;;;;;;;7.88;nan;100659.63;4991457;28;20077;-57
2023/03/17 00:10:21;;;;;;;4.47;2.80;;;;;;;7.87;nan;100667.53;4991664;28;20035;-57
2023/03/17 00:12:48;;;;;;;4.20;2.70;;;;;;;7.43;nan;100576.91;4992685;28;20037;-57
2023/03/17 00:15:13;;;;;;;3.00;2.38;;;;;;;7.83;nan;100637.03;4992185;28;20038;-55
2023/03/17 00:17:39;;;;;;;3.42;2.40;;;;;;;7.48;nan;100584.63;4992693;28;20037;-56
2023/03/17 00:20:06;;;;;;;3.90;2.92;;;;;;;7.77;nan;100634.56;4992487;28;20466;-56
2023/03/17 00:22:31;;;;;;;3.30;2.58;;;;;;;7.38;nan;100573.53;4975109;28;20046;-55
2023/03/17 00:24:57;;;;;;;4.60;2.78;;;;;;;7.64;nan;100620.06;4992054;28;20084;-54
2023/03/17 00:27:22;;;;;;;4.57;2.85;;;;;;;7.69;nan;100654.84;4991209;28;20038;-55
2023/03/17 00:29:48;;;;;;;5.20;3.08;;;;;;;7.19;nan;100562.63;4992574;28;20042;-54
2023/03/17 00:32:16;;;;;;;5.18;2.75;;;;;;;7.51;nan;100629.09;4992298;28;20037;-57
2023/03/17 00:34:42;;;;;;;3.95;2.63;;;;;;;7.03;nan;100557.78;4991054;28;20089;-55
2023/03/17 00:37:10;;;;;;;6.00;2.67;;;;;;;7.40;nan;100649.41;4992231;28;20046;-55
2023/03/17 00:39:35;;;;;;;5.90;3.15;;;;;;;7.41;nan;100648.53;5006774;28;20165;-57
2023/03/17 00:42:01;;;;;;;5.47;2.80;;;;;;;7.32;nan;100644.38;4991008;28;20129;-55
2023/03/17 00:44:26;;;;;;;4.72;3.40;;;;;;;7.30;nan;100635.66;4992103;28;20064;-54
2023/03/17 00:46:52;;;;;;;5.32;3.03;;;;;;;6.43;nan;100481.47;4991833;28;20341;-54
2023/03/17 00:49:20;;;;;;;4.60;3.20;;;;;;;7.25;nan;100603.50;4990749;28;20062;-55
2023/03/17 00:51:46;;;;;;;4.07;2.75;;;;;;;6.82;nan;100527.72;4992420;28;20462;-57
2023/03/17 00:54:14;;;;;;;3.58;3.03;;;;;;;6.85;nan;100537.25;4992382;28;20034;-57
2023/03/17 00:56:40;;;;;;;4.35;2.92;;;;;;;6.89;nan;100560.69;4991270;28;20049;-56
2023/03/17 00:59:16;;;;;;;4.20;3.50;;;;;;;7.29;nan;100620.88;4992083;28;20038;-55
2023/03/17 01:01:42;;;;;;;4.07;3.17;;;;;;;7.31;nan;100627.78;4992191;28;20031;-57
2023/03/17 01:04:09;;;;;;;4.40;3.33;;;;;;;7.32;nan;100637.38;4991990;28;20053;-57
2023/03/17 01:06:35;;;;;;;5.15;3.22;;;;;;;6.96;nan;100564.88;5007261;28;20054;-56
2023/03/17 01:09:02;;;;;;;4.30;3.10;;;;;;;6.90;nan;100554.56;4992048;28;20030;-56
2023/03/17 01:11:28;;;;;;;5.43;2.97;;;;;;;7.31;nan;100640.00;4991279;28;20041;-57
2023/03/17 01:13:53;;;;;;;3.95;2.95;;;;;;;7.14;nan;100611.59;4995141;28;20038;-57
2023/03/17 01:16:18;;;;;;;5.18;3.00;;;;;;;7.14;nan;100608.13;4996029;28;20083;-56
2023/03/17 01:18:44;;;;;;;3.90;3.25;;;;;;;7.25;nan;100614.84;4995830;28;20117;-55
2023/03/17 01:21:10;;;;;;;3.13;2.83;;;;;;;7.25;nan;100625.31;4996241;28;20415;-56
2023/03/17 01:23:36;;;;;;;3.88;2.72;;;;;;;6.77;nan;100521.72;4994339;28;20161;-56
2023/03/17 01:26:01;;;;;;;3.38;2.95;;;;;;;7.25;nan;100598.25;4995749;28;20077;-56
2023/03/17 01:28:27;;;;;;;3.25;2.95;;;;;;;6.89;nan;100528.44;4993917;28;20066;-54
2023/03/17 01:30:52;;;;;;;4.25;3.25;;;;;;;7.29;nan;100585.09;5010753;28;20486;-55
2023/03/17 01:33:17;;;;;;;4.85;2.75;;;;;;;6.83;nan;100505.88;4995779;28;20038;-55
2023/03/17 01:35:44;;;;;;;3.60;3.00;;;;;;;6.94;nan;100522.22;4995251;28;20034;-54
2023/03/17 01:38:10;;;;;;;3.83;3.17;;;;;;;7.31;nan;100579.81;4995792;28;20026;-59
2023/03/17 01:40:42;;;;;;;3.08;2.45;;;;;;;7.40;nan;100586.56;4995615;28;20054;-56
2023/03/17 01:43:07;;;;;;;4.90;3.17;;;;;;;7.43;nan;100590.00;4994089;28;20117;-54
2023/03/17 01:46:11;;;;;;;4.47;3.15;;;;;;;7.49;nan;100571.53;4995449;28;20173;-55
2023/03/17 01:48:44;;;;;;;5.55;2.80;;;;;;;7.09;nan;100506.13;4995230;28;20085;-56
2023/03/17 01:51:24;;;;;;;3.78;2.80;;;;;;;7.10;nan;100514.84;4994935;28;20027;-55
2023/03/17 01:53:51;;;;;;;4.50;2.28;;;;;;;7.52;nan;100578.44;4995408;28;20026;-56
2023/03/17 01:56:18;;;;;;;2.88;2.33;;;;;;;7.53;nan;100581.00;4995148;28;20162;-54
2023/03/17 01:58:46;;;;;;;2.85;2.55;;;;;;;7.54;nan;100569.63;4977462;28;20038;-57
2023/03/17 02:01:12;;;;;;;3.13;2.53;;;;;;;7.53;nan;100565.28;4994665;28;20031;-56
2023/03/17 02:03:39;;;;;;;3.22;2.58;;;;;;;7.53;nan;100559.22;4994047;28;20026;-55
2023/03/17 02:06:06;;;;;;;3.10;2.58;;;;;;;7.17;nan;100498.13;4994608;28;20050;-56
2023/03/17 02:08:31;;;;;;;2.58;2.25;;;;;;;7.62;nan;100574.69;5009991;28;20061;-56
2023/03/17 02:10:57;;;;;;;4.85;2.78;;;;;;;7.62;nan;100572.94;5009703;28;20042;-56
2023/03/17 02:13:23;;;;;;;5.32;2.75;;;;;;;7.24;nan;100497.91;4995076;28;20035;-56
2023/03/17 02:15:50;;;;;;;3.42;2.67;;;;;;;7.27;nan;100502.22;4992727;28;20393;-56
2023/03/17 02:18:18;;;;;;;4.30;2.67;;;;;;;7.10;nan;100467.72;4993263;28;20388;-57
2023/03/17 02:20:46;;;;;;;3.35;2.50;;;;;;;7.67;nan;100557.09;4993448;28;20034;-55
2023/03/17 02:23:14;;;;;;;6.00;2.60;;;;;;;7.26;nan;100482.19;4994454;28;20117;-55
2023/03/17 02:25:40;;;;;;;4.53;2.47;;;;;;;7.70;nan;100557.91;5009699;28;20370;-56
2023/03/17 02:28:27;;;;;;;4.38;2.40;;;;;;;7.72;nan;100547.38;4993871;28;20430;-56
2023/03/17 02:30:52;;;;;;;5.00;2.65;;;;;;;7.47;nan;100515.72;4993466;28;20072;-57
2023/03/17 02:33:18;;;;;;;3.78;2.83;;;;;;;7.63;nan;100543.22;4994588;28;20073;-56
2023/03/17 02:35:43;;;;;;;3.90;2.60;;;;;;;7.75;nan;100565.63;4993098;28;20095;-55
2023/03/17 02:38:09;;;;;;;3.72;2.80;;;;;;;7.78;nan;100557.69;4993199;28;20137;-56
2023/03/17 02:40:34;;;;;;;3.90;3.00;;;;;;;7.33;nan;100500.31;4994417;28;20036;-55
2023/03/17 02:42:59;;;;;;;4.18;3.25;;;;;;;7.51;nan;100543.53;4994371;28;20409;-55
2023/03/17 02:45:26;;;;;;;4.03;2.88;;;;;;;7.86;nan;100551.34;4992129;28;20117;-56
2023/03/17 02:47:51;;;;;;;4.88;3.25;;;;;;;7.47;nan;100486.03;4993856;28;20082;-54
2023/03/17 02:50:22;;;;;;;5.18;3.25;;;;;;;7.79;nan;100549.78;4994059;28;20070;-57
2023/03/17 02:52:48;;;;;;;;;;;;;;;7.91;nan;100557.34;4993089;28;20030;-54
2023/03/17 02:55:13;;;;;;;5.05;3.40;;;;;;;7.98;nan;100551.94;4994036;28;20017;-57
2023/03/17 02:57:39;;;;;;;4.43;2.92;;;;;;;8.01;nan;100554.47;4994116;28;20057;-58
2023/03/17 03:00:09;;;;;;;6.65;3.42;;;;;;;7.51;nan;100478.03;4994336;28;20050;-56
2023/03/17 03:02:34;;;;;;;5.55;2.90;;;;;;;8.08;nan;100582.25;4993076;28;20414;-58
2023/03/17 03:04:59;;;;;;;4.18;3.08;;;;;;;7.72;nan;100495.84;4994071;28;20085;-54
2023/03/17 03:07:25;;;;;;;5.95;3.45;;;;;;;8.06;nan;100550.81;4994425;28;20096;-56
2023/03/17 03:09:50;;;;;;;5.13;2.70;;;;;;;8.08;nan;100556.03;4994152;28;20034;-55
2023/03/17 03:12:15;;;;;;;5.25;2.65;;;;;;;7.74;nan;100490.53;4993550;28;20038;-56
2023/03/17 03:14:41;;;;;;;3.33;2.38;;;;;;;8.14;nan;100561.13;4993640;28;20081;-56
2023/03/17 03:17:07;;;;;;;3.90;2.55;;;;;;;8.17;nan;100568.91;4993783;28;20499;-56
2023/03/17 03:19:33;;;;;;;2.95;2.45;;;;;;;7.92;nan;100532.00;4992818;28;20124;-57
2023/03/17 03:21:58;;;;;;;4.22;2.30;;;;;;;7.88;nan;100530.38;4993807;28;20069;-58
2023/03/17 03:24:23;;;;;;;2.53;2.25;;;;;;;8.18;nan;100581.09;4993267;28;20089;-57
2023/03/17 03:26:49;;;;;;;3.78;2.72;;;;;;;8.16;nan;100583.78;4993727;28;20038;-55
2023/03/17 03:29:15;;;;;;;3.42;2.25;;;;;;;8.14;nan;100587.34;4993301;28;20042;-58
2023/03/17 03:31:41;;;;;;;3.90;2.45;;;;;;;8.11;nan;100575.19;4993624;28;20092;-57
2023/03/17 03:34:06;;;;;;;4.20;2.95;;;;;;;7.68;nan;100498.56;4993152;28;20482;-57
2023/03/17 03:36:32;;;;;;;3.92;2.53;;;;;;;8.04;nan;100564.88;5007241;28;20068;-55
2023/03/17 03:38:58;;;;;;;3.75;2.67;;;;;;;7.73;nan;100526.38;4993590;28;20126;-53
2023/03/17 03:41:23;;;;;;;6.55;2.75;;;;;;;7.83;nan;100548.81;4993332;28;20059;-56
2023/03/17 03:43:49;;;;;;;4.95;2.72;;;;;;;7.65;nan;100517.84;5008345;28;20413;-57
2023/03/17 03:46:14;;;;;;;3.90;2.95;;;;;;;8.08;nan;100593.63;4993170;28;20088;-54
2023/03/17 03:48:39;;;;;;;4.50;3.15;;;;;;;8.08;nan;100596.22;4993061;28;20050;-58
2023/03/17 03:51:05;;;;;;;5.40;2.95;;;;;;;8.08;nan;100600.59;4992906;28;20030;-54
2023/03/17 03:53:30;;;;;;;4.90;2.47;;;;;;;7.69;nan;100535.22;4992412;28;20073;-57
2023/03/17 03:55:56;;;;;;;4.22;2.70;;;;;;;8.08;nan;100611.97;4992504;28;20153;-55
2023/03/17 03:58:21;;;;;;;4.85;2.95;;;;;;;8.00;nan;100595.53;4993167;28;20116;-55
2023/03/17 04:00:47;;;;;;;3.75;2.97;;;;;;;8.03;nan;100598.09;5008307;28;20030;-56
2023/03/17 04:03:13;;;;;;;3.70;2.55;;;;;;;7.64;nan;100541.47;5008148;28;20402;-58
2023/03/17 04:05:38;;;;;;;3.70;2.60;;;;;;;7.99;nan;100595.59;4993070;28;20038;-55
2023/03/17 04:08:04;;;;;;;2.90;2.25;;;;;;;7.71;nan;100553.50;5008087;28;20041;-56
2023/03/17 04:10:30;;;;;;;3.58;2.33;;;;;;;7.71;nan;100550.88;5007836;28;20038;-56
2023/03/17 04:12:56;;;;;;;5.80;3.17;;;;;;;7.99;nan;100596.47;4992901;28;20035;-56
2023/03/17 04:15:21;;;;;;;4.72;2.95;;;;;;;7.60;nan;100524.97;4992036;28;20038;-56
2023/03/17 04:17:47;;;;;;;5.20;2.80;;;;;;;8.02;nan;100596.38;4992710;28;20346;-58
2023/03/17 04:20:13;;;;;;;3.83;2.75;;;;;;;7.63;nan;100514.41;4992929;28;20096;-56
2023/03/17 04:22:40;;;;;;;3.78;2.75;;;;;;;7.69;nan;100519.50;4992377;28;20112;-54
2023/03/17 04:25:06;;;;;;;4.13;2.55;;;;;;;8.02;nan;100585.91;4992850;28;20057;-59
2023/03/17 04:27:32;;;;;;;5.00;2.90;;;;;;;8.10;nan;100601.41;4992780;28;20513;-55
2023/03/17 04:29:57;;;;;;;5.45;2.80;;;;;;;8.01;nan;100580.69;4991218;28;20042;-55
2023/03/17 04:32:22;;;;;;;4.60;2.95;;;;;;;8.12;nan;100600.47;4992523;28;20042;-56
2023/03/17 04:34:47;;;;;;;4.38;2.70;;;;;;;8.14;nan;100592.59;4992645;28;20034;-57
2023/03/17 04:37:13;;;;;;;4.18;2.83;;;;;;;8.18;nan;100591.59;4991036;28;20057;-56
2023/03/17 04:39:39;;;;;;;4.75;2.13;;;;;;;8.18;nan;100599.44;4992359;28;20097;-56
2023/03/17 04:42:05;;;;;;;3.90;2.30;;;;;;;8.15;nan;100592.53;4992477;28;20038;-57
2023/03/17 04:44:31;;;;;;;3.65;2.55;;;;;;;8.15;nan;100581.19;5006986;28;20038;-57
2023/03/17 04:46:56;;;;;;;3.45;2.20;;;;;;;8.04;nan;100547.41;4989790;28;20038;-58
2023/03/17 04:49:22;;;;;;;3.15;2.30;;;;;;;8.28;nan;100593.97;4991635;28;20222;-57
2023/03/17 04:51:47;;;;;;;5.50;2.83;;;;;;;8.24;nan;100601.91;4992236;28;20057;-57
2023/03/17 04:54:12;;;;;;;4.68;2.40;;;;;;;8.22;nan;100574.88;4992043;28;20049;-56
2023/03/17 04:56:38;;;;;;;3.42;2.67;;;;;;;8.34;nan;100601.69;4992018;28;20030;-56
2023/03/17 04:59:03;;;;;;;2.50;2.22;;;;;;;8.23;nan;100579.25;4992000;28;20110;-57
2023/03/17 05:01:29;;;;;;;2.88;2.33;;;;;;;8.25;nan;100567.81;4992085;28;20602;-56
2023/03/17 05:03:55;;;;;;;5.13;2.72;;;;;;;8.37;nan;100583.25;4990659;28;20030;-57
2023/03/17 05:06:20;;;;;;;2.58;2.10;;;;;;;8.23;nan;100542.53;4991379;28;20045;-56
2023/03/17 05:08:45;;;;;;;4.63;2.17;;;;;;;8.39;nan;100563.06;4991939;28;20128;-56
2023/03/17 05:11:11;;;;;;;3.80;2.47;;;;;;;8.08;nan;100495.75;4991849;28;20046;-54
2023/03/17 05:13:37;;;;;;;4.78;2.70;;;;;;;8.41;nan;100576.13;4990686;28;20038;-57
2023/03/17 05:16:02;;;;;;;4.22;2.60;;;;;;;8.02;nan;100509.03;4990006;28;20054;-56
2023/03/17 05:18:28;;;;;;;3.33;2.17;;;;;;;8.00;nan;100510.84;4991741;28;20030;-57
2023/03/17 05:20:53;;;;;;;2.40;2.15;;;;;;;8.37;nan;100550.91;5006478;28;20118;-56
2023/03/17 05:23:19;;;;;;;3.30;2.53;;;;;;;7.88;nan;100462.25;5007256;28;20046;-57
2023/03/17 05:25:45;;;;;;;6.35;2.92;;;;;;;8.14;nan;100521.81;4990404;28;20040;-53
2023/03/17 05:28:11;;;;;;;3.72;2.72;;;;;;;8.06;nan;100558.69;4991075;28;20062;-55
2023/03/17 05:30:37;;;;;;;3.33;2.75;;;;;;;8.03;nan;100566.63;4991466;28;20065;-56
2023/03/17 05:33:02;;;;;;;3.38;2.38;;;;;;;7.96;nan;100544.13;4991666;28;20074;-57
2023/03/17 05:35:28;;;;;;;4.93;2.30;;;;;;;7.48;nan;100491.22;5006099;28;20057;-57
2023/03/17 05:37:53;;;;;;;3.85;2.50;;;;;;;7.74;nan;100569.13;4991415;28;20066;-56
2023/03/17 05:40:19;;;;;;;3.13;2.22;;;;;;;7.27;nan;100517.91;5006854;28;20046;-56
2023/03/17 05:42:44;;;;;;;3.83;2.85;;;;;;;7.61;nan;100578.22;4991765;28;20092;-56
2023/03/17 05:45:10;;;;;;;4.25;2.90;;;;;;;7.22;nan;100502.34;4991150;28;20035;-57
2023/03/17 05:47:35;;;;;;;5.93;3.10;;;;;;;7.17;nan;100493.75;4990445;28;20050;-54
2023/03/17 05:50:03;;;;;;;4.47;2.97;;;;;;;7.61;nan;100570.34;4988223;28;20050;-55
2023/03/17 05:52:29;;;;;;;6.45;3.13;;;;;;;7.60;nan;100574.72;4988395;28;20142;-56
2023/03/17 05:54:54;;;;;;;5.40;3.20;;;;;;;7.57;nan;100566.94;4989634;28;20043;-56
2023/03/17 05:57:20;;;;;;;6.03;3.50;;;;;;;6.99;nan;100456.66;4989476;28;20038;-55
2023/03/17 05:59:46;;;;;;;5.15;3.17;;;;;;;7.59;nan;100553.81;4994351;28;20181;-55
2023/03/17 06:02:12;;;;;;;4.45;3.20;;;;;;;7.54;nan;100538.22;4994058;28;20399;-55
2023/03/17 06:04:37;;;;;;;3.88;2.92;;;;;;;7.55;nan;100557.41;4994503;28;20185;-56
2023/03/17 06:07:06;;;;;;;4.47;2.80;;;;;;;7.60;nan;100558.16;4995032;28;20035;-56
2023/03/17 06:09:32;;;;;;;6.07;3.42;;;;;;;7.57;nan;100548.63;4992942;28;20030;-57
2023/03/17 06:11:58;;;;;;;3.83;2.80;;;;;;;7.54;nan;100553.06;4994753;28;20035;-55
2023/03/17 06:14:24;;;;;;;4.43;2.83;;;;;;;7.40;nan;100539.44;4994894;28;20053;-55
2023/03/17 06:16:50;;;;;;;3.10;2.60;;;;;;;7.43;nan;100553.31;4993244;28;20537;-56
2023/03/17 06:19:15;;;;;;;3.85;2.53;;;;;;;7.05;nan;100490.56;4995021;28;20039;-55
2023/03/17 06:21:41;;;;;;;4.05;2.47;;;;;;;7.31;nan;100554.47;4994655;28;20398;-56
2023/03/17 06:24:06;;;;;;;3.38;2.45;;;;;;;6.92;nan;100510.06;4992375;28;20034;-56
2023/03/17 06:26:32;;;;;;;5.45;2.63;;;;;;;7.17;nan;100545.22;4993719;28;20541;-55
2023/03/17 06:28:57;;;;;;;3.95;3.03;;;;;;;7.34;nan;100577.97;4994640;28;20034;-55
2023/03/17 06:31:22;;;;;;;4.82;3.17;;;;;;;7.40;nan;100563.88;4993073;28;20448;-56
2023/03/17 06:33:48;;;;;;;3.55;2.80;;;;;;;7.50;nan;100562.75;4994761;28;20034;-55
2023/03/17 06:36:13;;;;;;;5.47;3.25;;;;;;;7.61;nan;100563.38;5009337;28;20501;-55
2023/03/17 06:38:38;;;;;;;4.72;2.97;;;;;;;7.78;nan;100573.41;4994423;28;20046;-56
2023/03/17 06:41:04;;;;;;;4.85;3.10;;;;;;;7.81;nan;100548.00;4992114;28;20151;-56
2023/03/17 06:43:30;;;;;;;8.60;3.60;;;;;;;7.61;nan;100487.41;4994223;28;20030;-55
2023/03/17 06:45:56;;;;;;;5.70;3.78;;;;;;;8.13;nan;100562.88;4993343;28;20038;-57
2023/03/17 06:48:22;;;;;;;6.55;3.40;;;;;;;8.27;nan;100573.00;4992572;28;20055;-56
2023/03/17 06:50:48;;;;;;;4.82;2.92;;;;;;;8.29;nan;100553.72;4992625;28;20030;-54
2023/03/17 06:53:13;;;;;;;6.57;3.13;;;;;;;8.11;nan;100516.63;5009430;28;20052;-55
2023/03/17 06:55:39;;;;;;;6.57;2.70;;;;;;;8.42;nan;100578.72;4994038;28;20049;-56
2023/03/17 06:58:05;;;;;;;4.28;2.53;;;;;;;8.03;nan;100502.88;4988428;28;20039;-55
2023/03/17 07:00:30;;;;;;;5.68;3.00;;;;;;;8.55;nan;100594.13;4976149;28;20050;-55
2023/03/17 07:02:56;;;;;;;4.53;3.45;;;;;;;8.55;nan;100588.88;4992386;28;20038;-55
2023/03/17 07:05:22;;;;;;;5.63;3.10;;;;;;;8.56;nan;100599.31;5003841;28;20069;-53
2023/03/17 07:07:48;;;;;;;3.72;3.00;;;;;;;8.56;nan;100596.69;4993802;28;20058;-55
2023/03/17 07:10:14;;;;;;;4.35;3.28;;;;;;;8.60;nan;100598.34;4990780;28;20039;-55
2023/03/17 07:12:40;;;;;;;7.10;3.22;;;;;;;8.67;nan;100591.16;4993051;28;20038;-55
2023/03/17 07:15:06;;;;;;;3.10;2.80;;;;;;;8.66;nan;100587.66;4991973;28;20053;-55
2023/03/17 07:17:31;;;;;;;4.38;2.95;;;;;;;8.25;nan;100507.50;4993729;28;20089;-56
2023/03/17 07:19:56;;;;;;;4.90;3.15;;;;;;;8.78;nan;100589.09;4989777;28;20038;-54
2023/03/17 07:22:22;;;;;;;5.90;3.35;;;;;;;8.80;nan;100572.38;4993363;28;20070;-56
2023/03/17 07:24:47;;;;;;;6.32;3.30;;;;;;;8.98;nan;100582.34;4993408;28;20129;-56
2023/03/17 07:27:16;;;;;;;3.05;2.65;;;;;;;9.11;nan;100582.81;4992320;28;20088;-55
2023/03/17 07:29:42;;;;;;;3.20;2.78;;;;;;;9.23;nan;100586.81;4991834;28;20506;-55
2023/03/17 07:32:08;;;;;;;5.97;3.30;;;;;;;8.91;nan;100519.56;4993241;28;20037;-56
2023/03/17 07:34:34;;;;;;;5.88;3.10;;;;;;;9.35;nan;100576.81;4992883;28;20470;-55
2023/03/17 07:37:00;;;;;;;6.22;3.03;;;;;;;9.07;nan;100520.81;4989080;28;20042;-55
2023/03/17 07:39:26;;;;;;;4.28;3.10;;;;;;;9.48;nan;100575.53;4985391;28;20065;-56
2023/03/17 07:41:53;;;;;;;4.78;2.55;;;;;;;9.70;nan;100625.59;4975714;28;20121;-54
2023/03/17 07:44:23;;;;;;;5.85;2.95;;;;;;;9.62;nan;100582.97;4992712;28;20169;-55
2023/03/17 07:46:49;;;;;;;6.50;3.13;;;;;;;10.08;nan;100633.09;4981371;28;20038;-55
2023/03/17 07:49:14;;;;;;;6.15;3.08;;;;;;;9.84;nan;100557.66;4979057;28;20058;-57
2023/03/17 07:51:42;;;;;;;4.03;3.35;;;;;;;9.95;nan;100560.78;4992012;28;20517;-49
2023/03/17 07:54:11;;;;;;;5.72;2.90;;;;;;;10.15;nan;100583.81;4992698;28;20118;-49
2023/03/17 07:56:37;;;;;;;7.03;3.25;;;;;;;10.09;nan;100569.09;4991526;28;20389;-49
2023/03/17 07:59:02;;;;;;;4.65;3.40;;;;;;;10.33;nan;100613.91;4993031;28;20117;-46
2023/03/17 08:01:29;;;;;;;4.70;2.83;;;;;;;10.11;nan;100564.63;4992584;28;20410;-48
2023/03/17 08:03:55;;;;;;;3.85;2.88;;;;;;;10.72;nan;100610.69;4997673;28;20030;-46
2023/03/17 08:06:23;;;;;;;5.35;3.30;;;;;;;11.05;nan;100589.28;4991262;28;20379;-49
2023/03/17 08:08:48;;;;;;;4.70;3.10;;;;;;;11.02;nan;100539.34;4987427;28;20030;-49
2023/03/17 08:11:13;;;;;;;5.85;3.28;;;;;;;11.65;nan;100594.78;4973777;28;20437;-50
2023/03/17 08:13:39;;;;;;;5.85;3.10;;;;;;;11.67;nan;100542.00;4973407;28;20027;-50
2023/03/17 08:16:05;;;;;;;4.28;3.00;;;;;;;12.45;nan;100614.28;4973332;28;20081;-49
2023/03/17 08:18:31;;;;;;;4.78;3.20;;;;;;;12.41;nan;100533.50;4985413;28;20042;-48
2023/03/17 08:20:57;;;;;;;6.35;2.83;;;;;;;12.91;nan;100544.41;4990535;28;20113;-48
2023/03/17 08:23:24;;;;;;;4.13;3.22;;;;;;;13.84;nan;100623.63;4991208;28;20066;-48
2023/03/17 08:25:49;;;;;;;3.50;3.20;;;;;;;14.07;nan;100573.06;4990484;28;20080;-48
2023/03/17 08:28:15;;;;;;;4.20;2.80;;;;;;;15.01;nan;100631.69;4992256;28;20039;-51
2023/03/17 08:30:41;;;;;;;6.43;3.38;;;;;;;15.61;nan;100622.22;4990599;28;20065;-49
2023/03/17 08:33:07;;;;;;;5.38;3.85;;;;;;;15.85;nan;100621.75;4991876;28;20049;-49
2023/03/17 08:35:34;;;;;;;5.85;3.60;;;;;;;16.17;nan;100623.41;4991680;28;20121;-48
2023/03/17 08:38:00;;;;;;;6.53;3.40;;;;;;;16.35;nan;100571.81;4992410;28;20088;-47
2023/03/17 08:40:25;;;;;;;4.32;3.00;;;;;;;16.74;nan;100603.13;4992060;28;20038;-49
2023/03/17 08:42:51;;;;;;;4.82;3.30;;;;;;;16.98;nan;100614.91;4979339;28;20066;-48
2023/03/17 08:45:17;;;;;;;7.47;3.33;;;;;;;17.16;nan;100629.69;4992379;28;20130;-51
2023/03/17 08:47:43;;;;;;;4.70;3.70;;;;;;;17.54;nan;100637.94;4985285;28;20077;-49
2023/03/17 08:50:15;;;;;;;7.60;3.92;;;;;;;17.74;nan;100624.22;4987617;28;20501;-50
2023/03/17 08:52:40;;;;;;;6.78;3.35;;;;;;;18.08;nan;100635.28;4992068;28;20037;-49
2023/03/17 08:55:07;;;;;;;5.85;3.42;;;;;;;18.30;nan;100635.59;4991825;28;20028;-48
2023/03/17 08:57:33;;;;;;;7.32;3.60;;;;;;;18.41;nan;100601.91;4991496;28;20038;-51
2023/03/17 08:59:58;;;;;;;6.07;3.90;;;;;;;18.54;nan;100624.13;4989830;28;20030;-57
2023/03/17 09:02:24;;;;;;;8.95;3.67;;;;;;;18.45;nan;100571.41;4971952;28;20194;-49
2023/03/17 09:04:49;;;;;;;4.80;3.53;;;;;;;19.00;nan;100640.44;4981592;28;20125;-50
2023/03/17 09:07:15;;;;;;;5.50;3.85;;;;;;;18.76;nan;100654.66;4987075;28;20450;-49
2023/03/17 09:09:41;;;;;;;5.13;3.85;;;;;;;18.40;nan;100642.84;4989217;28;20402;-54
2023/03/17 09:12:06;;;;;;;4.07;3.47;;;;;;;18.11;nan;100596.00;4990112;28;20034;-58
2023/03/17 09:14:33;;;;;;;4.63;3.53;;;;;;;17.96;nan;100644.94;4989648;28;20050;-51
2023/03/17 09:16:58;;;;;;;5.93;3.55;;;;;;;17.00;nan;100461.44;4989726;28;20562;-49
2023/03/17 09:19:24;;;;;;;5.38;3.70;;;;;;;18.19;nan;100603.47;4987440;28;20315;-56
2023/03/17 09:21:50;;;;;;;6.63;3.55;;;;;;;18.74;nan;100601.41;4972010;28;20031;-52
2023/03/17 09:24:16;;;;;;;4.40;3.40;;;;;;;19.33;nan;100609.66;4970178;28;20421;-51
2023/03/17 09:26:42;;;;;;;7.72;4.03;;;;;;;20.13;nan;100654.47;4972116;28;20039;-55
2023/03/17 09:29:07;;;;;;;4.25;3.40;;;;;;;20.46;nan;100673.34;4970374;28;20057;-53
2023/03/17 09:31:35;;;;;;;6.95;3.60;;;;;;;20.37;nan;100601.88;4970028;28;20031;-55
2023/03/17 09:34:00;;;;;;;5.13;3.65;;;;;;;21.31;nan;100629.22;4970337;28;20054;-51
2023/03/17 09:36:26;;;;;;;6.60;3.35;;;;;;;21.77;nan;100659.34;4974056;28;20062;-51
2023/03/17 09:38:51;;;;;;;4.35;3.50;;;;;;;21.66;nan;100678.13;4988206;28;20386;-50
2023/03/17 09:41:19;;;;;;;4.38;3.50;;;;;;;21.56;nan;100687.88;4974313;28;20035;-49
2023/03/17 09:44:14;;;;;;;7.75;4.15;;;;;;;20.35;nan;100685.81;4974295;28;20041;-51
2023/03/17 09:46:52;;;;;;;3.53;3.22;;;;;;;19.00;nan;100688.47;4981634;28;20546;-53
2023/03/17 09:49:26;;;;;;;6.00;3.40;;;;;;;18.24;nan;100694.59;4974179;28;20047;-55
2023/03/17 09:51:52;;;;;;;5.53;4.07;;;;;;;17.40;nan;100680.50;4973532;28;20031;-48
2023/03/17 09:54:30;;;;;;;5.88;3.83;;;;;;;16.35;nan;100638.22;4975059;28;20041;-49
2023/03/17 09:57:20;;;;;;;4.70;3.95;;;;;;;16.41;nan;100682.16;4974436;28;20042;-50
2023/03/17 09:59:49;;;;;;;6.07;3.90;;;;;;;15.85;nan;100659.75;4976018;28;20055;-49
2023/03/17 10:02:22;;;;;;;5.82;4.05;;;;;;;15.74;nan;100709.91;4972583;28;20121;-54
2023/03/17 10:04:48;;;;;;;6.38;4.07;;;;;;;15.49;nan;100688.34;4973543;28;20035;-49
2023/03/17 10:07:17;;;;;;;8.05;3.78;;;;;;;16.34;nan;100719.72;4974041;28;20037;-54
2023/03/17 10:09:52;;;;;;;6.07;3.92;;;;;;;16.96;nan;100709.84;4973967;28;20049;-47
2023/03/17 10:12:37;;;;;;;6.20;3.97;;;;;;;17.54;nan;100723.09;4974076;28;20045;-55
2023/03/17 10:15:19;;;;;;;4.35;3.85;;;;;;;18.36;nan;100720.41;4989173;28;20082;-53
2023/03/17 10:17:46;;;;;;;6.03;3.63;;;;;;;19.17;nan;100716.66;4973452;28;20039;-51
2023/03/17 10:20:24;;;;;;;11.18;5.60;;;;;;;18.95;nan;100701.28;4973996;28;20367;-54
2023/03/17 10:22:53;;;;;;;7.65;3.92;;;;;;;18.16;nan;100660.47;4972732;28;20035;-48
2023/03/17 10:25:21;;;;;;;5.07;3.70;;;;;;;18.14;nan;100705.00;4974038;28;20038;-49
2023/03/17 10:28:07;;;;;;;7.03;4.25;;;;;;;17.81;nan;100707.19;4974985;28;20382;-49
2023/03/17 10:30:34;;;;;;;7.60;4.68;;;;;;;17.62;nan;100664.06;4974851;28;20544;-48
2023/03/17 10:33:01;;;;;;;5.07;4.43;;;;;;;17.79;nan;100725.06;4974748;28;20644;-48
2023/03/17 10:35:27;;;;;;;7.88;4.60;;;;;;;17.65;nan;100711.78;4975053;28;20475;-48
2023/03/17 10:37:52;;;;;;;6.55;4.32;;;;;;;17.65;nan;100710.00;4974923;28;20097;-50
2023/03/17 10:40:24;;;;;;;6.82;4.57;;;;;;;17.47;nan;100681.84;4972889;28;20034;-52
2023/03/17 10:42:53;;;;;;;;;;;;;;;17.56;nan;100691.94;4973330;28;20482;-47
2023/03/17 10:45:29;;;;;;;4.78;4.38;;;;;;;17.52;nan;100695.69;4987737;28;20325;-47
2023/03/17 10:47:57;;;;;;;7.47;4.47;;;;;;;17.35;nan;100696.78;4973880;28;20101;-49
2023/03/17 10:50:32;;;;;;;4.65;4.15;;;;;;;17.20;nan;100711.03;4955417;28;20061;-52
2023/03/17 10:53:06;;;;;;;7.78;4.35;;;;;;;17.01;nan;100702.47;4973482;28;20051;-55
2023/03/17 10:55:37;;;;;;;7.80;4.40;;;;;;;17.12;nan;100701.81;4973163;28;20166;-52
2023/03/17 10:58:13;;;;;;;6.90;4.35;;;;;;;17.34;nan;100696.84;4972544;28;20035;-53
2023/03/17 11:00:54;;;;;;;8.70;4.43;;;;;;;16.95;nan;100648.81;4973101;28;20102;-55
2023/03/17 11:03:30;;;;;;;;;;;;;;;17.09;nan;100689.56;4988469;28;20088;-49
2023/03/17 11:06:01;;;;;;;5.55;4.47;;;;;;;16.69;nan;100632.66;4987802;28;20438;-48
2023/03/17 11:08:31;;;;;;;6.93;4.55;;;;;;;16.93;nan;100682.63;4972738;28;20046;-48
2023/03/17 11:10:57;;;;;;;6.45;4.80;;;;;;;16.66;nan;100671.84;4971591;28;20030;-53
2023/03/17 11:13:28;;;;;;;5.20;4.45;;;;;;;16.47;nan;100665.88;4988257;28;20045;-54
2023/03/17 11:16:09;;;;;;;5.22;4.65;;;;;;;16.18;nan;100671.09;4987606;28;20034;-52
2023/03/17 11:18:36;;;;;;;6.10;4.83;;;;;;;16.05;nan;100658.63;4972577;28;20088;-48
2023/03/17 11:21:08;;;;;;;6.38;4.60;;;;;;;15.97;nan;100658.19;4987669;28;20278;-55
2023/03/17 11:23:37;;;;;;;6.20;5.13;;;;;;;15.87;nan;100665.84;4972568;28;20027;-50
2023/03/17 11:26:23;;;;;;;7.90;4.70;;;;;;;15.66;nan;100645.81;4972770;28;20038;-48
2023/03/17 11:29:26;;;;;;;5.10;4.25;;;;;;;15.67;nan;100653.69;4971995;28;20038;-46
2023/03/17 11:32:14;;;;;;;7.45;4.65;;;;;;;15.62;nan;100660.19;4978883;28;20381;-47
2023/03/17 11:34:51;;;;;;;6.65;4.65;;;;;;;15.59;nan;100649.75;4971112;28;20433;-47
2023/03/17 11:37:20;;;;;;;7.93;4.50;;;;;;;15.38;nan;100566.88;4972149;28;20049;-50
2023/03/17 11:39:49;;;;;;;7.07;5.10;;;;;;;16.27;nan;100622.75;4987203;28;20038;-46
2023/03/17 11:42:36;;;;;;;8.52;5.05;;;;;;;17.05;nan;100607.38;4987627;28;20057;-48
2023/03/17 11:45:39;;;;;;;6.25;5.10;;;;;;;17.91;nan;100594.66;4986362;28;20039;-55
2023/03/17 11:48:13;;;;;;;7.57;5.22;;;;;;;18.92;nan;100592.13;4970741;28;20069;-59
2023/03/17 11:50:50;;;;;;;7.72;4.70;;;;;;;19.01;nan;100603.97;4970647;28;20139;-50